Ronnie Rogers — WDD2270 — position and weather

sailwx.info

Track history (hours):
 
Tides and Currents Weather Stations Pressure Air Temp Water Temp Dewpoint Dewpoint Depression Visibility Wind Speed Wind Dir Waves Ship Positions

Ronnie Rogers

Owner: Florida Marine, LLC, Mandeville, LA. More information available from US FCC via Universal Licensing System and Coast Guard Vessel Documentation Center.

Last reported at 2016-Aug-26 12:16 UTC. Time now 2016-Aug-27 04:42 UTC.
Position N 29°56' W 091°50'.

Length 27 m.

Type: Other ship. MMSI: 367113160.

Date/timePositionNaut miles runAvg speedWind from/ knotsBaromVisibWave heightAir tempDewpointWater temp
2016-Aug-26 12:16N 29°56' W 091°50'0 0.0
2016-Aug-26 07:30N 29°56' W 091°50'0 0.0
2016-Aug-25 20:27N 29°56' W 091°50'0 0.0
2016-Aug-25 19:32N 29°56' W 091°50'0 0.0
2016-Aug-25 12:32N 29°56' W 091°50'0 0.0
2016-Aug-25 11:28N 29°56' W 091°50'0 0.0
2016-Aug-25 08:27N 29°56' W 091°50'0 0.0
2016-Aug-24 23:24N 29°56' W 091°50'0 0.0
2016-Aug-24 11:17N 29°56' W 091°50'0 0.0
2016-Aug-24 10:30N 29°56' W 091°50'0 0.0
2016-Aug-24 09:33N 29°56' W 091°50'0 0.0
2016-Aug-24 06:24N 29°56' W 091°50'0 0.0
2016-Aug-24 04:27N 29°56' W 091°50'0 0.0
2016-Aug-24 03:25N 29°56' W 091°50'0 0.1
2016-Aug-24 02:20N 29°56' W 091°50'48 2.7
2016-Aug-23 08:19N 29°37' W 090°59'3 3.6
2016-Aug-23 07:25N 29°34' W 090°57'3 3.8
2016-Aug-23 06:33N 29°33' W 090°54'4 3.8
2016-Aug-23 05:33N 29°32' W 090°49'4 3.6
2016-Aug-23 04:33N 29°33' W 090°45'3 2.8
2016-Aug-23 03:33N 29°35' W 090°43'2 2.2
2016-Aug-23 02:33N 29°36' W 090°41'0 0.0
2016-Aug-23 01:33N 29°37' W 090°41'2 2.5
2016-Aug-23 00:33N 29°35' W 090°39'0 0.1
2016-Aug-22 23:33N 29°35' W 090°39'0 0.0
2016-Aug-22 22:33N 29°35' W 090°39'0 0.1
2016-Aug-22 21:33N 29°35' W 090°39'2 2.3
2016-Aug-22 20:33N 29°35' W 090°36'  
Track history (hours):
 
Tides and Currents Weather Stations Pressure Air Temp Water Temp Dewpoint Dewpoint Depression Visibility Wind Speed Wind Dir Waves Ship Positions

Ronnie Rogers

Owner: Florida Marine, LLC, Mandeville, LA. More information available from US FCC via Universal Licensing System and Coast Guard Vessel Documentation Center.

Last reported at 2016-Aug-26 12:16 UTC. Time now 2016-Aug-27 04:42 UTC.
Position N 29°56' W 091°50'.

Length 27 m.

Type: Other ship. MMSI: 367113160.

Date/timePositionNaut miles runAvg speedWind from/ knotsBaromVisibWave heightAir tempDewpointWater temp
2016-Aug-26 12:16N 29°56' W 091°50'0 0.0
2016-Aug-26 07:30N 29°56' W 091°50'0 0.0
2016-Aug-25 20:27N 29°56' W 091°50'0 0.0
2016-Aug-25 19:32N 29°56' W 091°50'0 0.0
2016-Aug-25 12:32N 29°56' W 091°50'0 0.0
2016-Aug-25 11:28N 29°56' W 091°50'0 0.0
2016-Aug-25 08:27N 29°56' W 091°50'0 0.0
2016-Aug-24 23:24N 29°56' W 091°50'0 0.0
2016-Aug-24 11:17N 29°56' W 091°50'0 0.0
2016-Aug-24 10:30N 29°56' W 091°50'0 0.0
2016-Aug-24 09:33N 29°56' W 091°50'0 0.0
2016-Aug-24 06:24N 29°56' W 091°50'0 0.0
2016-Aug-24 04:27N 29°56' W 091°50'0 0.0
2016-Aug-24 03:25N 29°56' W 091°50'0 0.1
2016-Aug-24 02:20N 29°56' W 091°50'48 2.7
2016-Aug-23 08:19N 29°37' W 090°59'3 3.6
2016-Aug-23 07:25N 29°34' W 090°57'3 3.8
2016-Aug-23 06:33N 29°33' W 090°54'4 3.8
2016-Aug-23 05:33N 29°32' W 090°49'4 3.6
2016-Aug-23 04:33N 29°33' W 090°45'3 2.8
2016-Aug-23 03:33N 29°35' W 090°43'2 2.2
2016-Aug-23 02:33N 29°36' W 090°41'0 0.0
2016-Aug-23 01:33N 29°37' W 090°41'2 2.5
2016-Aug-23 00:33N 29°35' W 090°39'0 0.1
2016-Aug-22 23:33N 29°35' W 090°39'0 0.0
2016-Aug-22 22:33N 29°35' W 090°39'0 0.1
2016-Aug-22 21:33N 29°35' W 090°39'2 2.3
2016-Aug-22 20:33N 29°35' W 090°36'  

Dump ship's entire track history